sensor_id;sensor_type;location;lat;lon;timestamp;pressure;altitude;pressure_sealevel;temperature;humidity
72414;BME280;60995;52.154;4.498;2023-03-14T00:01:21;98753.50;;;11.81;68.92
72414;BME280;60995;52.154;4.498;2023-03-14T00:03:37;98750.31;;;11.99;68.11
72414;BME280;60995;52.154;4.498;2023-03-14T00:05:53;98737.44;;;11.86;68.57
72414;BME280;60995;52.154;4.498;2023-03-14T00:08:10;98735.63;;;11.93;68.17
72414;BME280;60995;52.154;4.498;2023-03-14T00:10:27;98740.47;;;11.98;67.87
72414;BME280;60995;52.154;4.498;2023-03-14T00:12:43;98735.91;;;11.77;68.37
72414;BME280;60995;52.154;4.498;2023-03-14T00:15:00;98737.22;;;11.87;68.12
72414;BME280;60995;52.154;4.498;2023-03-14T00:17:19;98739.53;;;11.84;68.66
72414;BME280;60995;52.154;4.498;2023-03-14T00:19:35;98733.09;;;11.91;68.67
72414;BME280;60995;52.154;4.498;2023-03-14T00:21:54;98727.84;;;11.90;68.81
72414;BME280;60995;52.154;4.498;2023-03-14T00:24:11;98727.66;;;11.63;69.62
72414;BME280;60995;52.154;4.498;2023-03-14T00:26:27;98750.16;;;11.79;69.46
72414;BME280;60995;52.154;4.498;2023-03-14T00:28:44;98750.53;;;11.75;69.89
72414;BME280;60995;52.154;4.498;2023-03-14T00:31:05;98749.59;;;11.62;70.34
72414;BME280;60995;52.154;4.498;2023-03-14T00:33:23;98748.84;;;11.74;70.17
72414;BME280;60995;52.154;4.498;2023-03-14T00:35:39;98743.31;;;11.61;70.45
72414;BME280;60995;52.154;4.498;2023-03-14T00:37:56;98749.50;;;11.55;70.92
72414;BME280;60995;52.154;4.498;2023-03-14T00:40:12;98743.19;;;11.69;70.65
72414;BME280;60995;52.154;4.498;2023-03-14T00:42:29;98745.00;;;11.62;71.17
72414;BME280;60995;52.154;4.498;2023-03-14T00:44:45;98744.94;;;11.55;71.79
72414;BME280;60995;52.154;4.498;2023-03-14T00:47:01;98745.81;;;11.63;71.93
72414;BME280;60995;52.154;4.498;2023-03-14T00:49:18;98731.03;;;11.44;72.31
72414;BME280;60995;52.154;4.498;2023-03-14T00:51:34;98741.34;;;11.55;72.14
72414;BME280;60995;52.154;4.498;2023-03-14T00:53:50;98751.34;;;11.48;72.38
72414;BME280;60995;52.154;4.498;2023-03-14T00:56:09;98745.06;;;11.47;72.15
72414;BME280;60995;52.154;4.498;2023-03-14T00:58:27;98749.50;;;11.55;72.17
72414;BME280;60995;52.154;4.498;2023-03-14T01:00:45;98745.41;;;11.37;72.75
72414;BME280;60995;52.154;4.498;2023-03-14T01:03:05;98750.94;;;11.51;72.40
72414;BME280;60995;52.154;4.498;2023-03-14T01:05:22;98748.03;;;11.31;73.69
72414;BME280;60995;52.154;4.498;2023-03-14T01:07:39;98752.75;;;11.22;73.69
72414;BME280;60995;52.154;4.498;2023-03-14T01:09:55;98755.47;;;11.22;73.78
72414;BME280;60995;52.154;4.498;2023-03-14T01:12:11;98759.38;;;11.34;73.63
72414;BME280;60995;52.154;4.498;2023-03-14T01:14:28;98756.38;;;11.29;73.58
72414;BME280;60995;52.154;4.498;2023-03-14T01:16:44;98752.88;;;11.35;73.85
72414;BME280;60995;52.154;4.498;2023-03-14T01:19:02;98744.09;;;11.33;73.52
72414;BME280;60995;52.154;4.498;2023-03-14T01:21:32;98742.34;;;11.25;73.71
72414;BME280;60995;52.154;4.498;2023-03-14T01:23:51;98710.34;;;11.21;74.23
72414;BME280;60995;52.154;4.498;2023-03-14T01:26:11;98728.72;;;11.19;74.07
72414;BME280;60995;52.154;4.498;2023-03-14T01:28:28;98723.41;;;11.32;73.90
72414;BME280;60995;52.154;4.498;2023-03-14T01:30:44;98728.47;;;11.14;74.44
72414;BME280;60995;52.154;4.498;2023-03-14T01:33:01;98732.06;;;11.21;74.26
72414;BME280;60995;52.154;4.498;2023-03-14T01:35:17;98738.78;;;11.25;74.53
72414;BME280;60995;52.154;4.498;2023-03-14T01:37:33;98741.44;;;11.18;74.79
72414;BME280;60995;52.154;4.498;2023-03-14T01:39:50;98745.00;;;11.19;74.44
72414;BME280;60995;52.154;4.498;2023-03-14T01:42:06;98760.72;;;11.45;73.50
72414;BME280;60995;52.154;4.498;2023-03-14T01:44:22;98754.81;;;11.41;73.65
72414;BME280;60995;52.154;4.498;2023-03-14T01:46:45;98749.28;;;11.28;74.00
72414;BME280;60995;52.154;4.498;2023-03-14T01:49:43;98738.47;;;11.35;73.50
72414;BME280;60995;52.154;4.498;2023-03-14T01:51:56;98736.72;;;11.49;73.16
72414;BME280;60995;52.154;4.498;2023-03-14T01:54:19;98737.34;;;11.51;73.00
72414;BME280;60995;52.154;4.498;2023-03-14T01:56:49;98732.84;;;11.58;72.75
72414;BME280;60995;52.154;4.498;2023-03-14T01:59:10;98727.41;;;11.58;72.39
72414;BME280;60995;52.154;4.498;2023-03-14T02:01:28;98713.28;;;11.69;72.11
72414;BME280;60995;52.154;4.498;2023-03-14T02:03:50;98720.88;;;11.81;71.71
72414;BME280;60995;52.154;4.498;2023-03-14T02:06:11;98724.75;;;11.65;72.21
72414;BME280;60995;52.154;4.498;2023-03-14T02:08:31;98705.38;;;11.74;71.89
72414;BME280;60995;52.154;4.498;2023-03-14T02:10:48;98714.25;;;11.90;71.45
72414;BME280;60995;52.154;4.498;2023-03-14T02:13:06;98704.78;;;12.01;71.04
72414;BME280;60995;52.154;4.498;2023-03-14T02:15:23;98716.69;;;11.78;71.49
72414;BME280;60995;52.154;4.498;2023-03-14T02:17:42;98707.94;;;11.83;71.44
72414;BME280;60995;52.154;4.498;2023-03-14T02:22:50;98708.25;;;11.66;71.94
72414;BME280;60995;52.154;4.498;2023-03-14T02:27:23;98704.00;;;11.57;72.61
72414;BME280;60995;52.154;4.498;2023-03-14T02:29:47;98693.41;;;11.40;72.85
72414;BME280;60995;52.154;4.498;2023-03-14T02:32:08;98701.06;;;11.58;72.28
72414;BME280;60995;52.154;4.498;2023-03-14T02:34:25;98702.34;;;11.63;71.94
72414;BME280;60995;52.154;4.498;2023-03-14T02:36:41;98691.06;;;11.59;71.87
72414;BME280;60995;52.154;4.498;2023-03-14T02:39:14;98699.00;;;11.61;72.19
72414;BME280;60995;52.154;4.498;2023-03-14T02:41:37;98693.13;;;11.57;72.12
72414;BME280;60995;52.154;4.498;2023-03-14T02:43:53;98700.91;;;11.38;72.81
72414;BME280;60995;52.154;4.498;2023-03-14T02:46:16;98701.53;;;11.62;71.99
72414;BME280;60995;52.154;4.498;2023-03-14T02:51:30;98684.47;;;11.47;72.22
72414;BME280;60995;52.154;4.498;2023-03-14T02:53:47;98694.16;;;11.56;71.92
72414;BME280;60995;52.154;4.498;2023-03-14T02:56:04;98701.06;;;11.58;72.18
72414;BME280;60995;52.154;4.498;2023-03-14T02:58:21;98688.09;;;11.54;72.04
72414;BME280;60995;52.154;4.498;2023-03-14T03:00:37;98694.31;;;11.48;72.30
72414;BME280;60995;52.154;4.498;2023-03-14T03:02:54;98684.03;;;11.43;72.52
72414;BME280;60995;52.154;4.498;2023-03-14T03:05:10;98683.91;;;11.51;72.44
72414;BME280;60995;52.154;4.498;2023-03-14T03:07:26;98684.97;;;11.57;72.45
72414;BME280;60995;52.154;4.498;2023-03-14T03:09:43;98682.53;;;11.40;72.79
72414;BME280;60995;52.154;4.498;2023-03-14T03:11:59;98681.91;;;11.38;73.30
72414;BME280;60995;52.154;4.498;2023-03-14T03:14:16;98677.34;;;11.46;72.69
72414;BME280;60995;52.154;4.498;2023-03-14T03:16:32;98681.75;;;11.47;72.83
72414;BME280;60995;52.154;4.498;2023-03-14T03:18:48;98673.09;;;11.58;72.24
72414;BME280;60995;52.154;4.498;2023-03-14T03:21:05;98667.97;;;11.48;72.60
72414;BME280;60995;52.154;4.498;2023-03-14T03:23:23;98675.44;;;11.39;72.51
72414;BME280;60995;52.154;4.498;2023-03-14T03:25:39;98669.38;;;11.37;73.28
72414;BME280;60995;52.154;4.498;2023-03-14T03:27:56;98677.09;;;11.40;73.13
72414;BME280;60995;52.154;4.498;2023-03-14T03:30:13;98679.19;;;11.38;73.30
72414;BME280;60995;52.154;4.498;2023-03-14T03:32:30;98674.78;;;11.37;72.51
72414;BME280;60995;52.154;4.498;2023-03-14T03:34:46;98675.06;;;11.42;73.04
72414;BME280;60995;52.154;4.498;2023-03-14T03:37:02;98672.19;;;11.51;72.63
72414;BME280;60995;52.154;4.498;2023-03-14T03:39:18;98673.09;;;11.58;72.84
72414;BME280;60995;52.154;4.498;2023-03-14T03:41:35;98675.16;;;11.56;72.39
72414;BME280;60995;52.154;4.498;2023-03-14T03:43:51;98678.78;;;11.63;72.30
72414;BME280;60995;52.154;4.498;2023-03-14T03:46:08;98670.22;;;11.66;72.51
72414;BME280;60995;52.154;4.498;2023-03-14T03:48:24;98666.75;;;11.51;73.07
72414;BME280;60995;52.154;4.498;2023-03-14T03:50:45;98664.16;;;11.64;72.70
72414;BME280;60995;52.154;4.498;2023-03-14T03:53:02;98664.28;;;11.56;72.85
72414;BME280;60995;52.154;4.498;2023-03-14T03:55:18;98661.63;;;11.34;73.81
72414;BME280;60995;52.154;4.498;2023-03-14T03:57:35;98670.84;;;11.40;73.67
72414;BME280;60995;52.154;4.498;2023-03-14T03:59:51;98671.16;;;11.52;73.69
72414;BME280;60995;52.154;4.498;2023-03-14T04:02:07;98671.94;;;11.46;73.96
72414;BME280;60995;52.154;4.498;2023-03-14T04:04:23;98675.31;;;11.48;74.86
72414;BME280;60995;52.154;4.498;2023-03-14T04:06:41;98680.38;;;11.29;76.46
72414;BME280;60995;52.154;4.498;2023-03-14T04:08:58;98689.75;;;11.05;78.26
72414;BME280;60995;52.154;4.498;2023-03-14T04:11:14;98682.19;;;11.00;79.15
72414;BME280;60995;52.154;4.498;2023-03-14T04:13:30;98675.59;;;10.88;79.79
72414;BME280;60995;52.154;4.498;2023-03-14T04:15:47;98676.09;;;10.76;81.08
72414;BME280;60995;52.154;4.498;2023-03-14T04:18:03;98675.78;;;10.86;81.68
72414;BME280;60995;52.154;4.498;2023-03-14T04:20:19;98677.78;;;10.78;82.07
72414;BME280;60995;52.154;4.498;2023-03-14T04:22:36;98680.47;;;10.78;81.83
72414;BME280;60995;52.154;4.498;2023-03-14T04:24:55;98676.88;;;10.70;82.43
72414;BME280;60995;52.154;4.498;2023-03-14T04:27:12;98679.66;;;10.77;82.84
72414;BME280;60995;52.154;4.498;2023-03-14T04:29:30;98677.91;;;10.69;83.32
72414;BME280;60995;52.154;4.498;2023-03-14T04:31:46;98684.47;;;10.60;83.80
72414;BME280;60995;52.154;4.498;2023-03-14T04:34:02;98668.22;;;10.45;84.67
72414;BME280;60995;52.154;4.498;2023-03-14T04:36:19;98667.53;;;10.58;84.68
72414;BME280;60995;52.154;4.498;2023-03-14T04:38:35;98674.38;;;10.54;84.75
72414;BME280;60995;52.154;4.498;2023-03-14T04:40:52;98665.22;;;10.55;84.89
72414;BME280;60995;52.154;4.498;2023-03-14T04:43:10;98672.91;;;10.51;84.69
72414;BME280;60995;52.154;4.498;2023-03-14T04:45:27;98667.00;;;10.48;84.79
72414;BME280;60995;52.154;4.498;2023-03-14T04:47:43;98655.59;;;10.52;85.46
72414;BME280;60995;52.154;4.498;2023-03-14T04:50:00;98665.25;;;10.40;85.30
72414;BME280;60995;52.154;4.498;2023-03-14T04:52:16;98663.75;;;10.37;85.85
72414;BME280;60995;52.154;4.498;2023-03-14T04:54:33;98663.94;;;10.36;85.90
72414;BME280;60995;52.154;4.498;2023-03-14T04:56:49;98661.78;;;10.31;86.46
72414;BME280;60995;52.154;4.498;2023-03-14T04:59:05;98662.72;;;10.38;85.98
72414;BME280;60995;52.154;4.498;2023-03-14T05:01:21;98665.31;;;10.47;86.05
72414;BME280;60995;52.154;4.498;2023-03-14T05:03:38;98655.97;;;10.34;86.49
72414;BME280;60995;52.154;4.498;2023-03-14T05:05:54;98672.22;;;10.49;86.22
72414;BME280;60995;52.154;4.498;2023-03-14T05:08:11;98681.22;;;10.50;86.26
72414;BME280;60995;52.154;4.498;2023-03-14T05:10:28;98684.03;;;10.41;86.41
72414;BME280;60995;52.154;4.498;2023-03-14T05:12:45;98675.25;;;10.39;86.88
72414;BME280;60995;52.154;4.498;2023-03-14T05:15:02;98683.53;;;10.53;86.64
72414;BME280;60995;52.154;4.498;2023-03-14T05:17:20;98684.28;;;10.47;86.52
72414;BME280;60995;52.154;4.498;2023-03-14T05:19:36;98692.53;;;10.38;86.31
72414;BME280;60995;52.154;4.498;2023-03-14T05:21:52;98703.09;;;10.33;86.57
72414;BME280;60995;52.154;4.498;2023-03-14T05:24:09;98729.44;;;10.09;86.73
72414;BME280;60995;52.154;4.498;2023-03-14T05:26:25;98723.28;;;9.86;86.12
72414;BME280;60995;52.154;4.498;2023-03-14T05:28:41;98725.03;;;9.79;86.07
72414;BME280;60995;52.154;4.498;2023-03-14T05:30:58;98740.56;;;9.47;85.48
72414;BME280;60995;52.154;4.498;2023-03-14T05:33:14;98743.56;;;9.52;84.93
72414;BME280;60995;52.154;4.498;2023-03-14T05:35:31;98754.81;;;9.40;85.37
72414;BME280;60995;52.154;4.498;2023-03-14T05:37:47;98759.44;;;9.32;85.54
72414;BME280;60995;52.154;4.498;2023-03-14T05:40:05;98767.94;;;9.29;85.34
72414;BME280;60995;52.154;4.498;2023-03-14T05:42:22;98772.91;;;9.17;85.64
72414;BME280;60995;52.154;4.498;2023-03-14T05:44:38;98770.63;;;9.05;85.63
72414;BME280;60995;52.154;4.498;2023-03-14T05:46:54;98781.75;;;9.10;85.72
72414;BME280;60995;52.154;4.498;2023-03-14T05:49:10;98796.28;;;9.09;85.97
72414;BME280;60995;52.154;4.498;2023-03-14T05:51:27;98802.00;;;9.15;85.88
72414;BME280;60995;52.154;4.498;2023-03-14T05:53:43;98800.59;;;9.27;85.66
72414;BME280;60995;52.154;4.498;2023-03-14T05:55:59;98802.59;;;9.02;85.80
72414;BME280;60995;52.154;4.498;2023-03-14T05:58:16;98804.09;;;9.04;85.81
72414;BME280;60995;52.154;4.498;2023-03-14T06:00:32;98816.22;;;9.17;85.89
72414;BME280;60995;52.154;4.498;2023-03-14T06:02:48;98812.00;;;9.14;85.78
72414;BME280;60995;52.154;4.498;2023-03-14T06:05:05;98833.72;;;8.98;85.57
72414;BME280;60995;52.154;4.498;2023-03-14T06:07:23;98834.22;;;9.01;86.02
72414;BME280;60995;52.154;4.498;2023-03-14T06:09:39;98847.34;;;9.13;85.93
72414;BME280;60995;52.154;4.498;2023-03-14T06:11:58;98848.06;;;9.06;85.77
72414;BME280;60995;52.154;4.498;2023-03-14T06:14:15;98852.19;;;8.86;85.43
72414;BME280;60995;52.154;4.498;2023-03-14T06:16:31;98870.44;;;8.84;85.50
72414;BME280;60995;52.154;4.498;2023-03-14T06:18:47;98863.56;;;8.73;85.01
72414;BME280;60995;52.154;4.498;2023-03-14T06:21:05;98861.72;;;8.65;84.95
72414;BME280;60995;52.154;4.498;2023-03-14T06:23:22;98874.22;;;8.74;84.93
72414;BME280;60995;52.154;4.498;2023-03-14T06:25:38;98874.19;;;8.83;84.91
72414;BME280;60995;52.154;4.498;2023-03-14T06:27:55;98878.41;;;8.85;84.46
72414;BME280;60995;52.154;4.498;2023-03-14T06:30:11;98897.50;;;8.84;84.10
72414;BME280;60995;52.154;4.498;2023-03-14T06:32:28;98905.41;;;8.93;83.85
72414;BME280;60995;52.154;4.498;2023-03-14T06:34:44;98916.59;;;8.82;83.96
72414;BME280;60995;52.154;4.498;2023-03-14T06:37:00;98911.38;;;8.81;84.15
72414;BME280;60995;52.154;4.498;2023-03-14T06:39:17;98912.38;;;8.80;83.69
72414;BME280;60995;52.154;4.498;2023-03-14T06:41:34;98929.63;;;8.87;84.11
72414;BME280;60995;52.154;4.498;2023-03-14T06:43:50;98929.13;;;8.83;83.89
72414;BME280;60995;52.154;4.498;2023-03-14T06:46:07;98940.13;;;8.73;84.08
72414;BME280;60995;52.154;4.498;2023-03-14T06:48:23;98939.09;;;8.83;83.45
72414;BME280;60995;52.154;4.498;2023-03-14T06:50:39;98944.69;;;8.73;83.23
72414;BME280;60995;52.154;4.498;2023-03-14T06:52:57;98948.22;;;8.82;83.07
72414;BME280;60995;52.154;4.498;2023-03-14T06:55:15;98961.69;;;9.06;82.85
72414;BME280;60995;52.154;4.498;2023-03-14T06:57:31;98973.00;;;9.02;83.18
72414;BME280;60995;52.154;4.498;2023-03-14T06:59:48;98981.84;;;8.87;82.27
72414;BME280;60995;52.154;4.498;2023-03-14T07:02:04;99001.97;;;8.85;82.03
72414;BME280;60995;52.154;4.498;2023-03-14T07:04:21;99009.75;;;8.80;81.61
72414;BME280;60995;52.154;4.498;2023-03-14T07:06:37;99008.22;;;8.85;81.49
72414;BME280;60995;52.154;4.498;2023-03-14T07:08:56;99026.81;;;8.80;81.06
72414;BME280;60995;52.154;4.498;2023-03-14T07:11:12;99037.28;;;9.00;80.59
72414;BME280;60995;52.154;4.498;2023-03-14T07:13:29;99034.84;;;9.21;80.27
72414;BME280;60995;52.154;4.498;2023-03-14T07:15:45;99040.66;;;9.10;80.21
72414;BME280;60995;52.154;4.498;2023-03-14T07:18:01;99057.03;;;9.00;79.99
72414;BME280;60995;52.154;4.498;2023-03-14T07:20:18;99057.22;;;8.99;80.49
72414;BME280;60995;52.154;4.498;2023-03-14T07:22:34;99072.97;;;8.87;81.07
72414;BME280;60995;52.154;4.498;2023-03-14T07:24:50;99084.38;;;8.39;82.58
72414;BME280;60995;52.154;4.498;2023-03-14T07:27:06;99097.66;;;7.65;84.37
72414;BME280;60995;52.154;4.498;2023-03-14T07:29:23;99112.09;;;7.48;85.38
72414;BME280;60995;52.154;4.498;2023-03-14T07:31:39;99128.88;;;7.33;86.27
72414;BME280;60995;52.154;4.498;2023-03-14T07:33:55;99134.44;;;7.32;86.17
72414;BME280;60995;52.154;4.498;2023-03-14T07:36:12;99151.56;;;7.22;85.57
72414;BME280;60995;52.154;4.498;2023-03-14T07:38:28;99163.03;;;7.24;84.91
72414;BME280;60995;52.154;4.498;2023-03-14T07:40:45;99174.16;;;7.03;84.26
72414;BME280;60995;52.154;4.498;2023-03-14T07:43:01;99194.47;;;7.16;83.91
72414;BME280;60995;52.154;4.498;2023-03-14T07:45:17;99193.91;;;6.86;84.63
72414;BME280;60995;52.154;4.498;2023-03-14T07:47:33;99184.56;;;6.80;85.28
72414;BME280;60995;52.154;4.498;2023-03-14T07:49:50;99217.16;;;6.87;84.80
72414;BME280;60995;52.154;4.498;2023-03-14T07:52:06;99228.88;;;6.77;85.01
72414;BME280;60995;52.154;4.498;2023-03-14T07:54:22;99250.78;;;6.65;85.13
72414;BME280;60995;52.154;4.498;2023-03-14T07:56:40;99249.00;;;6.83;84.66
72414;BME280;60995;52.154;4.498;2023-03-14T07:58:56;99247.97;;;7.02;83.92
72414;BME280;60995;52.154;4.498;2023-03-14T08:01:13;99264.00;;;7.22;82.57
72414;BME280;60995;52.154;4.498;2023-03-14T08:03:29;99281.19;;;7.21;81.30
72414;BME280;60995;52.154;4.498;2023-03-14T08:05:49;99292.19;;;7.45;80.43
72414;BME280;60995;52.154;4.498;2023-03-14T08:08:06;99290.19;;;7.92;79.98
72414;BME280;60995;52.154;4.498;2023-03-14T08:10:22;99308.34;;;7.82;79.18
72414;BME280;60995;52.154;4.498;2023-03-14T08:12:39;99321.81;;;7.37;80.02
72414;BME280;60995;52.154;4.498;2023-03-14T08:14:55;99327.41;;;6.90;81.54
72414;BME280;60995;52.154;4.498;2023-03-14T08:17:11;99349.41;;;6.85;82.67
72414;BME280;60995;52.154;4.498;2023-03-14T08:19:27;99363.72;;;6.68;82.24
72414;BME280;60995;52.154;4.498;2023-03-14T08:21:44;99353.00;;;6.48;79.81
72414;BME280;60995;52.154;4.498;2023-03-14T08:24:00;99375.63;;;6.65;79.48
72414;BME280;60995;52.154;4.498;2023-03-14T08:26:16;99380.41;;;6.71;nan
72414;BME280;60995;52.154;4.498;2023-03-14T08:28:33;99395.19;;;6.67;77.63
72414;BME280;60995;52.154;4.498;2023-03-14T08:30:49;99403.00;;;6.70;76.96
72414;BME280;60995;52.154;4.498;2023-03-14T08:33:05;99406.22;;;6.74;77.36
72414;BME280;60995;52.154;4.498;2023-03-14T08:35:22;99415.59;;;6.79;76.96
72414;BME280;60995;52.154;4.498;2023-03-14T08:37:38;99417.28;;;7.08;77.15
72414;BME280;60995;52.154;4.498;2023-03-14T08:39:54;99430.06;;;7.34;75.89
72414;BME280;60995;52.154;4.498;2023-03-14T08:42:10;99449.88;;;7.43;75.15
72414;BME280;60995;52.154;4.498;2023-03-14T08:44:27;99473.47;;;7.87;73.08
72414;BME280;60995;52.154;4.498;2023-03-14T08:46:43;99471.31;;;8.08;71.68
72414;BME280;60995;52.154;4.498;2023-03-14T08:48:59;99476.97;;;8.41;69.94
72414;BME280;60995;52.154;4.498;2023-03-14T08:51:16;99481.38;;;8.60;69.30
72414;BME280;60995;52.154;4.498;2023-03-14T08:53:32;99500.75;;;8.56;69.40
72414;BME280;60995;52.154;4.498;2023-03-14T08:55:53;99503.16;;;8.41;70.00
72414;BME280;60995;52.154;4.498;2023-03-14T08:58:10;99496.94;;;8.67;68.99
72414;BME280;60995;52.154;4.498;2023-03-14T09:00:26;99516.44;;;8.52;68.80
72414;BME280;60995;52.154;4.498;2023-03-14T09:02:43;99532.50;;;8.18;69.00
72414;BME280;60995;52.154;4.498;2023-03-14T09:04:59;99533.72;;;8.05;69.81
72414;BME280;60995;52.154;4.498;2023-03-14T09:07:16;99535.06;;;8.37;69.39
72414;BME280;60995;52.154;4.498;2023-03-14T09:09:33;99549.78;;;8.43;69.47
72414;BME280;60995;52.154;4.498;2023-03-14T09:11:50;99556.13;;;8.34;69.00
72414;BME280;60995;52.154;4.498;2023-03-14T09:14:06;99565.25;;;8.33;68.52
72414;BME280;60995;52.154;4.498;2023-03-14T09:16:22;99584.50;;;8.48;68.57
72414;BME280;60995;52.154;4.498;2023-03-14T09:18:39;99596.72;;;7.78;71.87
72414;BME280;60995;52.154;4.498;2023-03-14T09:20:55;99613.00;;;7.68;73.51
72414;BME280;60995;52.154;4.498;2023-03-14T09:23:12;99629.06;;;7.60;74.72
72414;BME280;60995;52.154;4.498;2023-03-14T09:25:28;99629.28;;;7.39;74.93
72414;BME280;60995;52.154;4.498;2023-03-14T09:27:44;99642.81;;;7.29;75.33
72414;BME280;60995;52.154;4.498;2023-03-14T09:30:00;99642.69;;;7.68;75.67
72414;BME280;60995;52.154;4.498;2023-03-14T09:32:17;99640.66;;;7.80;74.08
72414;BME280;60995;52.154;4.498;2023-03-14T09:34:33;99639.41;;;8.02;73.14
72414;BME280;60995;52.154;4.498;2023-03-14T09:36:50;99646.16;;;8.62;71.42
72414;BME280;60995;52.154;4.498;2023-03-14T09:39:06;99654.41;;;8.78;72.13
72414;BME280;60995;52.154;4.498;2023-03-14T09:41:50;99660.13;;;8.75;69.62
72414;BME280;60995;52.154;4.498;2023-03-14T09:44:33;99675.25;;;8.86;68.96
72414;BME280;60995;52.154;4.498;2023-03-14T09:46:54;99689.56;;;8.97;69.32
72414;BME280;60995;52.154;4.498;2023-03-14T09:49:35;99710.72;;;8.65;69.60
72414;BME280;60995;52.154;4.498;2023-03-14T09:51:56;99711.72;;;8.64;68.10
72414;BME280;60995;52.154;4.498;2023-03-14T09:54:31;99717.78;;;8.94;67.36
72414;BME280;60995;52.154;4.498;2023-03-14T09:56:52;99728.69;;;9.02;66.54
72414;BME280;60995;52.154;4.498;2023-03-14T09:59:11;99731.81;;;9.52;64.69
72414;BME280;60995;52.154;4.498;2023-03-14T10:01:32;99729.72;;;9.98;62.78
72414;BME280;60995;52.154;4.498;2023-03-14T10:03:50;99747.06;;;8.81;60.65
72414;BME280;60995;52.154;4.498;2023-03-14T10:06:13;99747.19;;;8.61;62.16
72414;BME280;60995;52.154;4.498;2023-03-14T10:08:31;99779.03;;;9.31;62.25
72414;BME280;60995;52.154;4.498;2023-03-14T10:10:47;99789.06;;;9.03;60.33
72414;BME280;60995;52.154;4.498;2023-03-14T10:13:25;99795.66;;;9.36;59.39
72414;BME280;60995;52.154;4.498;2023-03-14T10:15:51;99794.72;;;9.46;57.32
72414;BME280;60995;52.154;4.498;2023-03-14T10:18:11;99809.63;;;9.94;55.74
72414;BME280;60995;52.154;4.498;2023-03-14T10:20:33;99818.66;;;9.76;56.47
72414;BME280;60995;52.154;4.498;2023-03-14T10:22:54;99825.03;;;9.31;56.18
72414;BME280;60995;52.154;4.498;2023-03-14T10:25:26;99834.63;;;9.07;56.17
72414;BME280;60995;52.154;4.498;2023-03-14T10:27:44;99848.22;;;9.16;56.39
72414;BME280;60995;52.154;4.498;2023-03-14T10:30:06;99853.94;;;8.85;56.79
72414;BME280;60995;52.154;4.498;2023-03-14T10:32:45;99859.03;;;8.70;57.36
72414;BME280;60995;52.154;4.498;2023-03-14T10:35:11;99862.13;;;8.75;57.36
72414;BME280;60995;52.154;4.498;2023-03-14T10:37:35;99880.09;;;8.66;56.76
72414;BME280;60995;52.154;4.498;2023-03-14T10:39:53;99884.28;;;8.78;55.47
72414;BME280;60995;52.154;4.498;2023-03-14T10:42:16;99895.97;;;9.71;54.70
72414;BME280;60995;52.154;4.498;2023-03-14T10:44:38;99906.81;;;10.33;52.33
72414;BME280;60995;52.154;4.498;2023-03-14T10:47:04;99909.19;;;13.20;47.19
72414;BME280;60995;52.154;4.498;2023-03-14T10:49:30;99911.53;;;13.39;43.98
72414;BME280;60995;52.154;4.498;2023-03-14T10:51:48;99915.94;;;12.93;45.31
72414;BME280;60995;52.154;4.498;2023-03-14T10:54:20;99939.72;;;12.10;45.56
72414;BME280;60995;52.154;4.498;2023-03-14T10:56:39;99947.81;;;10.30;49.11
72414;BME280;60995;52.154;4.498;2023-03-14T10:58:57;99944.94;;;9.41;51.40
72414;BME280;60995;52.154;4.498;2023-03-14T11:01:41;99960.19;;;11.12;48.68
72414;BME280;60995;52.154;4.498;2023-03-14T11:04:46;99969.91;;;11.73;46.65
72414;BME280;60995;52.154;4.498;2023-03-14T11:07:42;99987.69;;;13.16;43.10
72414;BME280;60995;52.154;4.498;2023-03-14T11:10:07;99983.25;;;13.71;42.11
72414;BME280;60995;52.154;4.498;2023-03-14T11:13:23;99994.50;;;14.99;39.21
72414;BME280;60995;52.154;4.498;2023-03-14T11:23:42;100036.06;;;14.02;38.94
72414;BME280;60995;52.154;4.498;2023-03-14T11:31:56;100052.38;;;13.79;38.28
72414;BME280;60995;52.154;4.498;2023-03-14T11:34:25;100049.97;;;13.28;39.92
72414;BME280;60995;52.154;4.498;2023-03-14T11:36:55;100071.66;;;12.88;41.56
72414;BME280;60995;52.154;4.498;2023-03-14T11:39:18;100075.91;;;13.07;38.65
72414;BME280;60995;52.154;4.498;2023-03-14T11:41:39;100097.53;;;12.59;39.20
72414;BME280;60995;52.154;4.498;2023-03-14T11:43:58;100084.44;;;12.87;39.82
72414;BME280;60995;52.154;4.498;2023-03-14T11:46:18;100102.56;;;11.78;40.67
72414;BME280;60995;52.154;4.498;2023-03-14T11:49:16;100106.00;;;12.23;40.54
72414;BME280;60995;52.154;4.498;2023-03-14T11:51:46;100109.59;;;12.48;40.24
72414;BME280;60995;52.154;4.498;2023-03-14T11:56:55;100128.16;;;12.78;37.73
72414;BME280;60995;52.154;4.498;2023-03-14T11:59:27;100121.25;;;12.24;38.71
72414;BME280;60995;52.154;4.498;2023-03-14T12:01:53;100137.16;;;12.45;37.98
72414;BME280;60995;52.154;4.498;2023-03-14T12:04:34;100147.50;;;12.41;38.07
72414;BME280;60995;52.154;4.498;2023-03-14T12:07:23;100149.91;;;12.53;38.61
72414;BME280;60995;52.154;4.498;2023-03-14T12:09:47;100148.44;;;12.16;39.10
72414;BME280;60995;52.154;4.498;2023-03-14T12:12:06;100150.88;;;12.27;40.42
72414;BME280;60995;52.154;4.498;2023-03-14T12:14:36;100152.75;;;11.92;40.39
72414;BME280;60995;52.154;4.498;2023-03-14T12:17:17;100162.66;;;12.01;40.92
72414;BME280;60995;52.154;4.498;2023-03-14T12:19:41;100171.44;;;12.30;40.27
72414;BME280;60995;52.154;4.498;2023-03-14T12:24:45;100198.13;;;11.65;41.49
72414;BME280;60995;52.154;4.498;2023-03-14T12:27:13;100180.41;;;11.53;42.10
72414;BME280;60995;52.154;4.498;2023-03-14T12:30:36;100192.53;;;11.93;39.42
72414;BME280;60995;52.154;4.498;2023-03-14T12:35:40;100193.84;;;11.63;37.03
72414;BME280;60995;52.154;4.498;2023-03-14T12:37:59;100207.88;;;11.05;37.05
72414;BME280;60995;52.154;4.498;2023-03-14T12:40:29;100219.88;;;10.49;38.82
72414;BME280;60995;52.154;4.498;2023-03-14T12:42:57;100228.72;;;10.51;40.24
72414;BME280;60995;52.154;4.498;2023-03-14T12:47:56;100228.31;;;10.64;41.28
72414;BME280;60995;52.154;4.498;2023-03-14T12:50:53;100241.53;;;9.83;41.38
72414;BME280;60995;52.154;4.498;2023-03-14T12:53:18;100239.44;;;10.15;42.12
72414;BME280;60995;52.154;4.498;2023-03-14T13:01:21;100270.00;;;9.97;41.35
72414;BME280;60995;52.154;4.498;2023-03-14T13:04:25;100275.34;;;10.17;41.45